الصفحة الرئيسية
METAR-TAF:

METAR-TAF

مطار :

مطار ميتشيل رومان الدولي

كورور, Babeldaob, بالاو

دائرة عرض: 07-22N, خط طول: 134-32E, ارتفاع: 54 متر

مراقبة الطقس الحالي

تاريخ ووقت الإصدار 28 دقيقة قبل الساعة 11:52UTC
رياح هادئة
درجة الحرارة 24°درجة مئوية
الرطوبة 94%
ضغط 1013 hPa
الرؤية: 22.5 كم
غيوم متفرقة على ارتفاع 1600 قدم
غيوم مفككة على ارتفاع 12000 قدم
غيوم مفككة على ارتفاع 30000 قدم

METAR: PTRO 231152Z 00000KT 14SM SCT016 BKN120 BKN300 24/23 A2990

زمن: 21:20 (12:20 UTC)

توقعات

تاريخ ووقت الإصدار 46 دقيقة قبل الساعة 11:34UTC
التوقعات صالحة من23 الساعة 12 UTC إلى 24 الساعة 12 UTC
ريح عقدة من الشمال
الرؤية: 10 كم
غيوم متفرقة على ارتفاع 1600 قدم
غيوم مفككة على ارتفاع 13000 قدم

TAF: PTRO 231134Z 2312/2412 00000KT P6SM SCT016 BKN130

أرصاد الطقس والتوقعات من أكثر من 4000 مطار (تقارير الطقس للمطار METAR والتنبؤ بالطقس بالمطارTAF).

المحطات المتاحة هي النقط الصفراء والحمراء على الخريطة.

حرك المؤشر فوق النقطة لمعرفة اسم المحطة.

ثم انقر لمعرفة أرصاد وتوقعات الطقس.

لتغيير الخارطة: اضغط على الأزرار الخضراء مع رمز الصليب الأسود للتكبير. على الزر الأخضر مع شرطة للتصغير، أو على الأسهم الخضراء للخرائط المجاورة.


METAR-TAF: